Time;durP1;ratioP1;P1;durP2;ratioP2;P2;SDS_P1;SDS_P2;PMS_P1;PMS_P2;Temp;Humidity;BMP_temperature;BMP_pressure;BME280_temperature;BME280_humidity;BME280_pressure;Samples;Min_cycle;Max_cycle;Signal;HPM_P1;HPM_P2
2022/02/26 00:01:13;;;;;;;12.27;6.20;;;;;;;2.96;66.95;101037.81;1473150;88;21737;-81
2022/02/26 00:03:40;;;;;;;11.67;5.23;;;;;;;2.99;66.75;101039.80;1469053;87;21445;-81
2022/02/26 00:06:07;;;;;;;8.73;4.93;;;;;;;2.99;66.61;101044.19;1468332;87;21628;-82
2022/02/26 00:08:34;;;;;;;9.00;3.67;;;;;;;2.96;66.57;101043.89;1469306;88;23392;-82
2022/02/26 00:11:02;;;;;;;9.33;5.20;;;;;;;2.95;66.18;101040.91;1447947;90;23414;-82
2022/02/26 00:13:29;;;;;;;8.47;4.57;;;;;;;2.95;66.36;101043.52;1447049;89;21689;-82
2022/02/26 00:15:56;;;;;;;10.83;5.20;;;;;;;2.92;66.03;101044.99;1455799;88;21608;-82
2022/02/26 00:18:23;;;;;;;14.63;6.10;;;;;;;3.01;66.00;101050.19;1460676;89;21606;-81
2022/02/26 00:20:50;;;;;;;14.03;4.07;;;;;;;3.01;65.66;101044.95;1465049;89;22669;-82
2022/02/26 00:23:18;;;;;;;9.40;4.27;;;;;;;3.04;65.55;101050.02;1462417;89;21642;-81
2022/02/26 00:25:45;;;;;;;7.60;4.10;;;;;;;3.04;65.33;101053.47;1463202;89;22697;-82
2022/02/26 00:28:12;;;;;;;15.53;5.57;;;;;;;3.02;65.17;101058.40;1461020;89;21760;-85
2022/02/26 00:30:39;;;;;;;10.00;4.17;;;;;;;3.06;65.12;101054.70;1463299;89;21893;-84
2022/02/26 00:33:07;;;;;;;9.53;4.57;;;;;;;3.00;65.01;101065.04;1462307;89;21928;-85
2022/02/26 00:35:34;;;;;;;8.80;4.17;;;;;;;3.00;65.06;101057.19;1462705;89;22462;-85
2022/02/26 00:38:01;;;;;;;10.93;4.50;;;;;;;3.00;64.91;101051.96;1464826;89;23009;-84
2022/02/26 00:40:28;;;;;;;8.03;4.60;;;;;;;2.96;64.88;101053.03;1462642;89;22484;-84
2022/02/26 00:42:55;;;;;;;9.83;4.23;;;;;;;2.91;64.89;101052.47;1462846;89;21597;-84
2022/02/26 00:45:23;;;;;;;9.10;4.43;;;;;;;2.92;64.92;101053.67;1462170;89;21696;-84
2022/02/26 00:47:50;;;;;;;15.20;5.83;;;;;;;2.85;64.93;101055.39;1463662;89;21486;-83
2022/02/26 00:50:18;;;;;;;10.80;5.10;;;;;;;2.84;65.11;101057.16;1464868;89;21708;-84
2022/02/26 00:52:46;;;;;;;11.40;5.93;;;;;;;2.81;65.21;101057.33;1387885;89;21486;-84
2022/02/26 00:55:13;;;;;;;16.37;5.47;;;;;;;2.77;65.22;101057.59;1503461;89;21602;-84
2022/02/26 00:57:40;;;;;;;9.00;5.27;;;;;;;2.75;65.17;101056.83;1388781;89;21560;-83
2022/02/26 01:00:10;;;;;;;28.07;7.50;;;;;;;2.68;65.26;101051.92;1368579;90;21732;-84
2022/02/26 01:02:37;;;;;;;10.53;5.30;;;;;;;2.57;65.41;101041.20;1427793;89;21607;-83
2022/02/26 01:05:05;;;;;;;11.13;4.70;;;;;;;2.57;65.41;101041.20;1381020;89;21989;-84
2022/02/26 01:07:34;;;;;;;11.27;4.27;;;;;;;2.60;65.50;101046.26;1463928;89;21698;-84
2022/02/26 01:10:03;;;;;;;16.60;6.23;;;;;;;2.60;65.37;101046.26;1395354;90;21575;-84
2022/02/26 01:12:30;;;;;;;18.13;7.20;;;;;;;2.58;65.37;101044.65;1444054;89;21797;-84
2022/02/26 01:14:58;;;;;;;12.63;6.17;;;;;;;2.55;65.38;101053.96;1439484;90;22535;-84
2022/02/26 01:17:26;;;;;;;12.97;5.27;;;;;;;2.52;65.43;101048.43;1457696;89;22631;-84
2022/02/26 01:19:53;;;;;;;12.23;5.33;;;;;;;2.49;65.55;101049.90;1452382;89;21677;-83
2022/02/26 01:22:20;;;;;;;14.93;5.60;;;;;;;2.44;65.49;101044.06;1428636;90;21604;-81
2022/02/26 01:24:48;;;;;;;12.43;5.53;;;;;;;2.43;65.64;101047.61;1458364;89;22112;-81
2022/02/26 01:27:15;;;;;;;12.23;5.60;;;;;;;2.40;65.27;101047.77;1453982;89;21459;-82
2022/02/26 01:29:42;;;;;;;8.47;4.43;;;;;;;2.40;65.32;101058.23;1458534;89;21483;-83
2022/02/26 01:32:09;;;;;;;17.73;5.40;;;;;;;2.36;65.09;101057.98;1456535;89;21619;-83
2022/02/26 01:34:36;;;;;;;13.63;6.33;;;;;;;2.40;65.25;101061.67;1448322;90;23091;-81
2022/02/26 01:37:04;;;;;;;17.97;6.67;;;;;;;2.37;64.91;101059.69;1453203;90;21575;-82
2022/02/26 01:39:31;;;;;;;12.37;5.00;;;;;;;2.38;64.96;101056.14;1453643;90;21764;-83
2022/02/26 01:41:59;;;;;;;12.40;5.27;;;;;;;2.37;64.84;101059.69;1452017;90;22824;-81
2022/02/26 01:44:26;;;;;;;13.33;5.23;;;;;;;2.35;64.94;101055.84;1449866;90;22690;-81
2022/02/26 01:46:54;;;;;;;12.97;5.20;;;;;;;2.31;64.72;101063.46;1453353;89;21623;-82
2022/02/26 01:49:21;;;;;;;12.83;5.20;;;;;;;2.31;64.51;101065.23;1455993;90;21638;-83
2022/02/26 01:51:49;;;;;;;15.20;5.67;;;;;;;2.31;64.51;101066.08;1448309;90;21688;-81
2022/02/26 01:54:19;;;;;;;14.40;6.40;;;;;;;2.29;64.43;101060.08;1452414;90;21672;-81
2022/02/26 01:56:46;;;;;;;12.30;4.83;;;;;;;2.31;64.30;101063.93;1451761;90;21668;-82
2022/02/26 01:59:14;;;;;;;16.30;6.57;;;;;;;2.26;64.15;101061.08;1447476;90;21740;-82
2022/02/26 02:01:41;;;;;;;11.13;4.90;;;;;;;2.21;64.32;101056.54;1448818;90;21734;-81
2022/02/26 02:04:08;;;;;;;10.50;4.93;;;;;;;2.18;64.34;101058.01;1436897;90;21605;-82
2022/02/26 02:06:35;;;;;;;11.87;4.90;;;;;;;2.18;64.27;101061.09;1444887;90;21717;-82
2022/02/26 02:09:02;;;;;;;11.20;5.30;;;;;;;2.16;64.16;101059.03;1451360;90;23950;-81
2022/02/26 02:11:30;;;;;;;12.90;5.30;;;;;;;2.15;64.25;101063.86;1456273;90;22583;-82
2022/02/26 02:13:57;;;;;;;14.70;4.63;;;;;;;2.13;64.28;101070.48;1442940;90;21584;-82
2022/02/26 02:16:25;;;;;;;21.40;7.20;;;;;;;2.07;64.45;101070.77;1451991;90;21676;-82
2022/02/26 02:18:52;;;;;;;11.70;6.07;;;;;;;2.09;64.68;101066.78;1433502;90;21467;-82
2022/02/26 02:21:21;;;;;;;14.47;5.07;;;;;;;2.03;64.74;101070.08;1452124;90;21651;-82
2022/02/26 02:23:49;;;;;;;12.50;5.70;;;;;;;2.02;64.75;101074.09;1453603;90;21667;-82
2022/02/26 02:26:18;;;;;;;13.83;4.70;;;;;;;2.03;64.73;101077.08;1450414;89;21642;-82
2022/02/26 02:28:45;;;;;;;12.63;6.07;;;;;;;2.01;64.79;101081.52;1445575;89;21533;-82
2022/02/26 02:31:12;;;;;;;13.03;5.67;;;;;;;1.98;64.73;101072.53;1451537;90;21593;-81
2022/02/26 02:33:45;;;;;;;13.37;5.20;;;;;;;1.93;64.80;101074.55;1443303;88;21759;-81
2022/02/26 02:36:12;;;;;;;11.10;5.07;;;;;;;1.92;64.95;101074.15;1447144;90;22777;-82
2022/02/26 02:38:41;;;;;;;13.27;5.37;;;;;;;1.94;64.78;101078.84;1439788;90;22633;-81
2022/02/26 02:41:08;;;;;;;20.30;7.90;;;;;;;1.89;65.07;101076.91;1451814;90;22230;-82
2022/02/26 02:43:35;;;;;;;17.17;6.93;;;;;;;1.87;65.11;101073.53;1433663;90;21798;-82
2022/02/26 02:46:03;;;;;;;12.07;4.90;;;;;;;1.91;64.97;101079.84;1441825;90;21637;-82
2022/02/26 02:48:31;;;;;;;12.07;5.20;;;;;;;1.88;64.96;101072.62;1447232;90;21798;-82
2022/02/26 02:50:58;;;;;;;9.77;5.40;;;;;;;1.84;65.03;101070.61;1445990;90;21653;-85
2022/02/26 02:53:25;;;;;;;16.53;6.27;;;;;;;1.83;64.91;101075.45;1442960;90;21802;-82
2022/02/26 02:55:53;;;;;;;10.50;5.27;;;;;;;1.87;64.97;101080.05;1446358;90;21805;-83
2022/02/26 02:58:29;;;;;;;15.87;6.13;;;;;;;1.85;65.14;101078.84;1448807;90;21716;-83
2022/02/26 03:00:58;;;;;;;21.00;7.33;;;;;;;1.83;65.05;101081.14;1453022;90;21777;-83
2022/02/26 03:03:26;;;;;;;14.20;5.47;;;;;;;1.85;65.14;101079.30;1451206;90;22686;-84
2022/02/26 03:05:53;;;;;;;12.23;6.13;;;;;;;1.88;65.03;101085.21;1433629;90;21614;-84
2022/02/26 03:08:24;;;;;;;15.43;5.90;;;;;;;1.88;65.37;101080.45;1447587;90;22671;-83
2022/02/26 03:10:53;;;;;;;11.88;4.33;;;;;;;1.89;65.11;101084.28;1450841;90;22653;-81
2022/02/26 03:13:23;;;;;;;16.97;5.63;;;;;;;1.88;65.50;101089.59;1445983;90;21261;-81
2022/02/26 03:15:52;;;;;;;10.00;5.67;;;;;;;1.88;65.31;101090.44;1432139;90;21508;-81
2022/02/26 03:18:22;;;;;;;12.10;6.20;;;;;;;1.91;65.43;101099.88;1450573;90;21540;-83
2022/02/26 03:20:49;;;;;;;10.67;5.63;;;;;;;1.93;65.23;101099.36;1444249;90;22635;-82
2022/02/26 03:23:18;;;;;;;15.27;6.20;;;;;;;1.87;65.56;101097.02;1447599;90;22413;-82
2022/02/26 03:25:45;;;;;;;13.20;6.27;;;;;;;1.89;65.55;101101.72;1441969;90;21719;-82
2022/02/26 03:28:12;;;;;;;9.30;3.87;;;;;;;1.91;65.57;101099.88;1444036;90;21775;-82
2022/02/26 03:30:40;;;;;;;13.23;5.50;;;;;;;1.89;65.15;101092.58;1447100;90;21747;-82
2022/02/26 03:33:07;;;;;;;11.80;6.63;;;;;;;1.94;65.41;101099.73;1450322;88;21731;-83
2022/02/26 03:35:35;;;;;;;13.73;6.70;;;;;;;1.92;65.27;101097.18;1444427;90;22661;-83
2022/02/26 03:38:02;;;;;;;15.47;6.40;;;;;;;1.95;65.22;101098.80;1434540;90;21642;-83
2022/02/26 03:40:29;;;;;;;16.07;7.97;;;;;;;1.97;65.31;101101.72;1447429;90;21451;-82
2022/02/26 03:42:56;;;;;;;12.53;6.17;;;;;;;1.99;65.28;101101.66;1447791;90;21637;-82
2022/02/26 03:45:23;;;;;;;15.63;5.20;;;;;;;2.00;65.18;101106.79;1443532;90;21882;-82
2022/02/26 03:47:51;;;;;;;14.57;5.80;;;;;;;2.00;65.17;101108.56;1455051;90;21748;-82
2022/02/26 03:50:18;;;;;;;20.30;7.70;;;;;;;1.99;65.24;101109.49;1451752;90;22518;-82
2022/02/26 03:52:45;;;;;;;12.57;4.83;;;;;;;2.00;65.36;101120.31;1440475;90;21445;-82
2022/02/26 03:55:13;;;;;;;16.03;6.73;;;;;;;1.98;65.11;101118.23;1433167;90;21658;-82
2022/02/26 03:57:41;;;;;;;18.20;6.43;;;;;;;2.02;65.15;101120.63;1442361;90;22805;-82
2022/02/26 04:00:09;;;;;;;15.00;5.77;;;;;;;1.98;65.40;101118.23;1447948;90;21717;-82
2022/02/26 04:02:37;;;;;;;15.53;7.40;;;;;;;2.01;65.20;101124.60;1454028;90;22492;-82
2022/02/26 04:05:05;;;;;;;12.83;5.90;;;;;;;2.01;65.24;101127.20;1448431;90;21569;-84
2022/02/26 04:07:32;;;;;;;16.30;7.33;;;;;;;2.02;64.91;101125.00;1448501;90;21761;-84
2022/02/26 04:09:59;;;;;;;14.07;5.77;;;;;;;2.01;65.08;101127.20;1442058;90;23795;-84
2022/02/26 04:12:26;;;;;;;12.80;7.27;;;;;;;2.02;65.14;101133.67;1451252;90;21801;-83
2022/02/26 04:14:53;;;;;;;17.53;6.40;;;;;;;2.00;65.06;101135.51;1445836;90;21555;-81
2022/02/26 04:17:23;;;;;;;14.53;5.75;;;;;;;2.00;65.03;101134.67;1452437;90;21690;-81
2022/02/26 04:19:50;;;;;;;18.07;6.30;;;;;;;1.99;65.13;101136.91;1442996;90;21408;-81
2022/02/26 04:22:18;;;;;;;17.80;7.70;;;;;;;2.00;65.34;101140.73;1436386;90;21409;-81
2022/02/26 04:24:44;;;;;;;13.97;6.30;;;;;;;1.99;65.28;101138.21;1450167;90;23129;-81
2022/02/26 04:27:11;;;;;;;14.77;7.50;;;;;;;2.00;65.32;101148.56;1450932;90;21605;-81
2022/02/26 04:29:38;;;;;;;11.70;6.20;;;;;;;1.99;65.25;101142.13;1451412;90;21517;-81
2022/02/26 04:32:07;;;;;;;15.13;4.83;;;;;;;1.99;65.21;101144.73;1449269;90;21606;-81
2022/02/26 04:34:34;;;;;;;12.83;5.97;;;;;;;1.99;65.00;101148.66;1456997;88;21648;-81
2022/02/26 04:37:03;;;;;;;11.80;6.27;;;;;;;1.99;64.88;101151.27;1466139;89;21463;-81
2022/02/26 04:39:30;;;;;;;12.10;5.90;;;;;;;2.02;64.56;101153.72;1467282;89;21479;-81
2022/02/26 04:41:57;;;;;;;11.73;5.80;;;;;;;2.03;64.60;101152.80;1452641;89;21720;-81
2022/02/26 04:44:26;;;;;;;12.50;6.63;;;;;;;2.05;64.44;101153.58;1461679;89;22658;-81
2022/02/26 04:46:53;;;;;;;14.13;6.27;;;;;;;2.09;64.42;101161.63;1454172;89;21745;-83
2022/02/26 04:49:20;;;;;;;12.03;5.50;;;;;;;2.10;64.42;101164.64;1463244;88;21564;-83
2022/02/26 04:51:47;;;;;;;12.83;5.93;;;;;;;2.05;63.92;101165.32;1468835;88;21662;-84
2022/02/26 04:54:14;;;;;;;13.67;5.83;;;;;;;2.06;64.29;101166.16;1469040;89;21549;-84
2022/02/26 04:56:41;;;;;;;16.27;6.70;;;;;;;2.06;63.87;101167.47;1468117;88;21651;-84
2022/02/26 04:59:08;;;;;;;12.97;5.80;;;;;;;2.12;63.97;101175.84;1467383;89;21387;-83
2022/02/26 05:01:36;;;;;;;15.07;6.57;;;;;;;2.11;63.51;101184.61;1467850;89;22688;-83
2022/02/26 05:04:03;;;;;;;20.43;9.20;;;;;;;2.07;63.33;101183.51;1464677;89;22419;-83
2022/02/26 05:06:30;;;;;;;14.63;7.20;;;;;;;2.08;63.57;101187.37;1462725;89;22648;-83
2022/02/26 05:08:57;;;;;;;17.70;8.60;;;;;;;2.09;63.43;101185.59;1467010;88;21747;-83
2022/02/26 05:11:24;;;;;;;17.40;7.83;;;;;;;2.10;63.55;101190.76;1443895;90;21406;-83
2022/02/26 05:13:51;;;;;;;14.00;6.63;;;;;;;2.07;63.19;101189.57;1430420;90;21595;-83
2022/02/26 05:16:18;;;;;;;18.93;7.20;;;;;;;2.07;63.46;101194.80;1441312;90;21580;-83
2022/02/26 05:18:45;;;;;;;17.80;8.50;;;;;;;2.05;63.51;101194.52;1444051;90;21782;-83
2022/02/26 05:21:13;;;;;;;19.50;7.90;;;;;;;2.06;63.39;101194.42;1450777;90;22532;-83
2022/02/26 05:23:42;;;;;;;19.27;8.17;;;;;;;2.02;63.57;101203.34;1442042;90;22525;-83
2022/02/26 05:26:13;;;;;;;11.37;5.97;;;;;;;2.04;63.45;101210.61;1446665;90;21553;-82
2022/02/26 05:28:41;;;;;;;13.23;6.53;;;;;;;2.01;63.66;101206.41;1450393;89;22703;-84
2022/02/26 05:31:08;;;;;;;11.20;4.83;;;;;;;1.98;63.46;101210.45;1433762;90;22541;-84
2022/02/26 05:33:36;;;;;;;14.77;5.90;;;;;;;1.94;63.16;101212.83;1445976;90;22607;-82
2022/02/26 05:36:04;;;;;;;15.90;6.60;;;;;;;1.94;63.14;101210.22;1459156;88;22668;-81
2022/02/26 05:38:32;;;;;;;12.60;6.03;;;;;;;1.93;63.30;101220.29;1468580;88;21650;-82
2022/02/26 05:40:59;;;;;;;13.60;7.40;;;;;;;1.92;63.37;101224.26;1469715;88;21861;-82
2022/02/26 05:43:26;;;;;;;13.47;6.00;;;;;;;1.93;63.42;101224.67;1472632;88;22124;-82
2022/02/26 05:45:53;;;;;;;15.33;5.93;;;;;;;1.93;63.20;101232.03;1468843;88;21856;-81
2022/02/26 05:48:20;;;;;;;15.00;6.50;;;;;;;1.94;63.39;101228.96;1477474;88;21758;-83
2022/02/26 05:50:48;;;;;;;13.93;5.13;;;;;;;1.96;63.36;101231.05;1473759;88;21765;-82
2022/02/26 05:53:15;;;;;;;11.40;5.63;;;;;;;1.90;63.22;101229.58;1468716;88;22468;-82
2022/02/26 05:55:42;;;;;;;14.37;6.47;;;;;;;1.93;63.53;101232.03;1468787;88;21594;-82
2022/02/26 05:58:09;;;;;;;19.23;6.50;;;;;;;1.96;63.38;101232.35;1477552;88;21644;-83
2022/02/26 06:00:36;;;;;;;14.97;6.43;;;;;;;1.93;63.32;101232.50;1475385;88;21628;-82
2022/02/26 06:03:04;;;;;;;12.70;6.17;;;;;;;1.94;63.36;101240.24;1474358;88;21811;-83
2022/02/26 06:05:34;;;;;;;14.80;6.13;;;;;;;1.92;63.36;101234.23;1472570;88;21626;-82
2022/02/26 06:08:04;;;;;;;10.73;6.10;;;;;;;1.93;63.77;101242.94;1470589;88;21654;-82
2022/02/26 06:10:32;;;;;;;10.48;5.25;;;;;;;1.87;63.32;101240.16;1474913;88;21714;-82
2022/02/26 06:12:59;;;;;;;15.23;6.10;;;;;;;1.94;63.65;101245.93;1464317;88;21463;-82
2022/02/26 06:15:29;;;;;;;14.50;7.27;;;;;;;1.94;63.38;101245.93;1467697;88;21475;-82
2022/02/26 06:17:56;;;;;;;15.03;6.95;;;;;;;1.97;63.19;101251.84;1474759;88;21722;-82
2022/02/26 06:20:23;;;;;;;18.00;7.93;;;;;;;1.96;63.11;101256.69;1449875;88;21353;-82
2022/02/26 06:22:50;;;;;;;11.27;6.53;;;;;;;1.95;63.11;101264.58;1477188;88;22528;-83
2022/02/26 06:25:19;;;;;;;18.63;7.00;;;;;;;1.93;62.92;101267.28;1475570;88;21664;-83
2022/02/26 06:27:46;;;;;;;11.77;6.13;;;;;;;1.96;63.18;101269.75;1473865;88;22511;-82
2022/02/26 06:30:14;;;;;;;17.53;7.20;;;;;;;1.97;63.14;101278.42;1476079;88;22435;-82
2022/02/26 06:32:42;;;;;;;23.77;12.00;;;;;;;1.98;63.39;101274.88;1473337;88;21941;-82
2022/02/26 06:35:11;;;;;;;60.27;22.13;;;;;;;1.99;63.78;101275.28;1468599;88;21712;-82
2022/02/26 06:37:40;;;;;;;40.67;14.43;;;;;;;1.99;63.66;101277.90;1466416;89;21574;-82
2022/02/26 06:40:09;;;;;;;41.57;18.03;;;;;;;2.01;63.44;101286.48;1453889;89;21640;-81
2022/02/26 06:42:36;;;;;;;21.90;10.23;;;;;;;2.02;63.63;101290.81;1464634;89;22537;-82
2022/02/26 06:45:05;;;;;;;15.57;7.23;;;;;;;2.03;63.04;101291.19;1469879;88;21669;-83
2022/02/26 06:47:33;;;;;;;25.33;13.00;;;;;;;2.09;63.33;101292.20;1467737;88;21647;-82
2022/02/26 06:50:00;;;;;;;14.10;6.77;;;;;;;2.14;63.35;101299.36;1475412;88;21876;-84
2022/02/26 06:52:28;;;;;;;20.00;7.53;;;;;;;2.20;63.34;101297.77;1469951;89;21546;-83
2022/02/26 06:54:55;;;;;;;15.50;6.20;;;;;;;2.23;62.89;101299.39;1475322;88;21492;-83
2022/02/26 06:57:23;;;;;;;18.53;8.50;;;;;;;2.24;62.64;101303.25;1465232;88;21580;-83
2022/02/26 06:59:50;;;;;;;15.30;6.60;;;;;;;2.29;62.26;101304.78;1471584;88;21658;-83
2022/02/26 07:02:17;;;;;;;16.93;7.40;;;;;;;2.29;62.22;101305.63;1472990;89;21537;-83
2022/02/26 07:04:44;;;;;;;18.63;7.80;;;;;;;2.39;62.32;101311.27;1467831;88;22763;-83
2022/02/26 07:07:11;;;;;;;17.60;7.17;;;;;;;2.47;62.29;101310.42;1466580;89;22487;-82
2022/02/26 07:09:40;;;;;;;16.43;7.17;;;;;;;2.48;62.04;101318.66;1455588;89;22113;-83
2022/02/26 07:12:09;;;;;;;15.37;6.97;;;;;;;2.54;61.92;101318.36;1470091;89;22470;-81
2022/02/26 07:14:37;;;;;;;17.00;5.60;;;;;;;2.56;61.88;101318.27;1467333;88;22618;-82
2022/02/26 07:17:05;;;;;;;14.50;5.87;;;;;;;2.60;61.54;101321.98;1470773;89;21769;-81
2022/02/26 07:19:32;;;;;;;11.77;6.50;;;;;;;2.64;61.62;101318.28;1472545;88;21810;-81
2022/02/26 07:21:59;;;;;;;13.30;6.93;;;;;;;2.70;61.52;101319.31;1464578;89;21648;-82
2022/02/26 07:24:28;;;;;;;14.00;6.87;;;;;;;2.79;61.63;101319.33;1478107;88;21738;-82
2022/02/26 07:26:55;;;;;;;16.87;8.43;;;;;;;2.84;61.64;101315.16;1471001;89;22506;-81
2022/02/26 07:29:22;;;;;;;13.13;4.87;;;;;;;2.94;61.80;101324.25;1465185;88;21597;-82
2022/02/26 07:31:50;;;;;;;14.27;6.17;;;;;;;2.97;61.05;101325.41;1472535;89;21664;-81
2022/02/26 07:34:17;;;;;;;14.20;6.50;;;;;;;2.98;60.43;101326.24;1466943;88;21717;-81
2022/02/26 07:36:44;;;;;;;12.13;5.70;;;;;;;3.08;60.79;101327.02;1467661;89;21682;-81
2022/02/26 07:39:11;;;;;;;15.73;6.80;;;;;;;3.09;60.64;101326.55;1470210;89;22647;-81
2022/02/26 07:41:39;;;;;;;12.43;5.33;;;;;;;3.14;60.34;101325.39;1467431;89;21612;-81
2022/02/26 07:44:06;;;;;;;16.90;7.10;;;;;;;3.25;60.27;101334.45;1464085;88;21767;-81
2022/02/26 07:46:33;;;;;;;15.77;6.70;;;;;;;3.25;59.30;101340.99;1471423;89;21646;-81
2022/02/26 07:49:00;;;;;;;19.80;7.23;;;;;;;3.40;60.20;101334.99;1468422;88;22795;-81
2022/02/26 07:51:28;;;;;;;14.27;6.43;;;;;;;3.55;59.23;101331.56;1465442;89;21759;-81
2022/02/26 07:53:55;;;;;;;17.20;6.50;;;;;;;3.69;59.33;101336.08;1467803;89;21678;-82
2022/02/26 07:56:23;;;;;;;17.53;6.83;;;;;;;3.88;57.97;101336.40;1475468;89;21882;-81
2022/02/26 07:58:50;;;;;;;35.87;7.93;;;;;;;4.00;58.07;101341.84;1468925;88;21823;-81
2022/02/26 08:01:17;;;;;;;10.30;5.77;;;;;;;4.00;58.07;101341.84;1464228;88;22779;-81
2022/02/26 08:03:45;;;;;;;15.27;5.97;;;;;;;4.03;56.06;101349.53;1467047;88;22002;-81
2022/02/26 08:06:12;;;;;;;14.10;5.07;;;;;;;4.03;56.06;101349.53;1468526;88;21992;-81
2022/02/26 08:08:39;;;;;;;10.07;4.37;;;;;;;4.09;56.40;101342.27;1462795;89;22187;-81
2022/02/26 08:11:06;;;;;;;15.90;6.13;;;;;;;4.03;55.91;101342.98;1469244;89;23208;-79
2022/02/26 08:13:33;;;;;;;19.23;5.67;;;;;;;4.15;56.70;101345.87;1465664;89;23341;-79
2022/02/26 08:16:01;;;;;;;8.63;3.47;;;;;;;4.18;56.03;101353.55;1469983;88;22231;-79
2022/02/26 08:18:28;;;;;;;16.10;7.00;;;;;;;4.24;55.31;101347.97;1467990;88;22067;-79
2022/02/26 08:20:57;;;;;;;13.33;4.43;;;;;;;4.20;54.18;101340.75;1470155;88;22212;-79
2022/02/26 08:23:24;;;;;;;15.53;6.10;;;;;;;4.28;55.29;101353.41;1467014;88;22054;-79
2022/02/26 08:25:51;;;;;;;8.43;4.47;;;;;;;4.47;55.71;101368.52;1467207;88;22123;-80
2022/02/26 08:28:18;;;;;;;11.97;5.83;;;;;;;4.57;54.52;101371.92;1466249;88;22089;-79
2022/02/26 08:30:45;;;;;;;8.03;4.53;;;;;;;4.70;55.22;101371.63;1469036;89;22127;-80
2022/02/26 08:33:12;;;;;;;10.17;4.73;;;;;;;4.79;54.89;101371.09;1470360;89;22177;-79
2022/02/26 08:35:40;;;;;;;10.13;4.17;;;;;;;4.97;54.57;101366.09;1474146;88;22164;-79
2022/02/26 08:38:07;;;;;;;9.73;4.27;;;;;;;5.05;53.48;101366.14;1464004;88;22193;-81
2022/02/26 08:40:35;;;;;;;8.43;4.10;;;;;;;5.20;54.31;101373.10;1467487;88;23041;-80
2022/02/26 08:43:02;;;;;;;14.27;5.33;;;;;;;5.15;52.69;101368.14;1456812;88;22125;-80
2022/02/26 08:45:30;;;;;;;15.93;5.20;;;;;;;5.44;53.19;101378.70;1445340;88;23551;-81
2022/02/26 08:47:57;;;;;;;12.10;4.90;;;;;;;5.48;51.95;101366.23;1430552;89;22466;-83
2022/02/26 08:50:25;;;;;;;8.70;3.87;;;;;;;5.48;51.95;101366.23;1437652;91;22302;-80
2022/02/26 08:52:52;;;;;;;10.90;3.73;;;;;;;5.55;50.69;101367.54;1435904;91;21459;-79
2022/02/26 08:55:19;;;;;;;8.90;3.67;;;;;;;5.52;50.88;101370.34;1436358;91;21517;-80
2022/02/26 08:57:46;;;;;;;8.50;3.80;;;;;;;5.63;51.10;101379.27;1438280;91;21519;-79
2022/02/26 09:00:15;;;;;;;10.70;4.10;;;;;;;5.59;50.28;101370.38;1436171;91;21569;-79
2022/02/26 09:02:43;;;;;;;10.17;3.77;;;;;;;5.68;50.60;101375.06;1430777;90;21548;-79
2022/02/26 09:05:14;;;;;;;6.77;3.47;;;;;;;5.82;50.88;101379.02;1435894;91;21606;-79
2022/02/26 09:07:41;;;;;;;12.90;5.43;;;;;;;5.87;50.09;101386.15;1437031;89;21600;-79
2022/02/26 09:10:10;;;;;;;16.47;4.33;;;;;;;5.92;50.05;101385.01;1446540;89;21526;-79
2022/02/26 09:12:37;;;;;;;7.97;3.87;;;;;;;5.91;50.27;101387.27;1433669;89;21452;-79
2022/02/26 09:15:06;;;;;;;9.87;4.13;;;;;;;6.25;50.47;101385.58;1445906;89;22390;-79
2022/02/26 09:17:33;;;;;;;13.40;5.23;;;;;;;6.63;49.60;101384.93;1443476;89;21371;-80
2022/02/26 09:20:00;;;;;;;11.63;4.40;;;;;;;6.92;49.55;101384.83;1429515;91;21437;-79
2022/02/26 09:22:27;;;;;;;11.13;4.07;;;;;;;7.10;48.41;101386.23;1440029;91;21543;-80
2022/02/26 09:24:55;;;;;;;7.43;3.37;;;;;;;6.97;47.51;101386.69;1434840;91;21386;-80
2022/02/26 09:27:22;;;;;;;9.03;5.23;;;;;;;7.02;45.99;101385.92;1437464;91;21444;-79
2022/02/26 09:29:49;;;;;;;11.87;4.43;;;;;;;7.14;46.75;101390.37;1446693;89;22324;-80
2022/02/26 09:32:16;;;;;;;8.93;3.53;;;;;;;7.11;46.85;101394.52;1441625;89;22452;-80
2022/02/26 09:34:43;;;;;;;12.60;3.77;;;;;;;7.13;46.21;101401.83;1452957;89;21400;-80
2022/02/26 09:37:10;;;;;;;10.37;4.00;;;;;;;7.10;46.20;101399.39;1452037;88;21370;-80
2022/02/26 09:39:38;;;;;;;8.97;3.60;;;;;;;7.13;46.31;101404.94;1451842;90;21472;-80
2022/02/26 09:42:06;;;;;;;8.80;3.93;;;;;;;7.13;46.62;101408.41;1444114;90;22426;-80
2022/02/26 09:44:32;;;;;;;9.80;4.23;;;;;;;7.10;45.79;101407.30;1445540;90;21509;-80
2022/02/26 09:47:00;;;;;;;10.60;4.23;;;;;;;7.26;46.72;101414.20;1446971;90;21524;-80
2022/02/26 09:49:27;;;;;;;15.17;7.40;;;;;;;7.34;46.31;101411.91;1447948;89;21480;-81
2022/02/26 09:51:57;;;;;;;14.13;6.43;;;;;;;7.52;46.19;101404.06;1456856;89;21532;-80
2022/02/26 09:54:25;;;;;;;7.72;3.47;;;;;;;7.65;44.44;101407.56;1457371;89;21517;-80
2022/02/26 09:56:52;;;;;;;7.33;3.13;;;;;;;7.78;43.84;101407.55;1460114;89;21569;-80
2022/02/26 09:59:20;;;;;;;10.33;4.53;;;;;;;7.82;44.51;101400.27;1435192;90;23371;-80
2022/02/26 10:02:00;;;;;;;5.63;3.13;;;;;;;7.74;44.81;101403.91;1440256;90;22368;-80
2022/02/26 10:04:29;;;;;;;6.92;2.92;;;;;;;7.85;44.72;101402.69;1443969;90;21487;-81
2022/02/26 10:07:13;;;;;;;7.53;3.27;;;;;;;8.00;43.37;101399.01;1444027;90;21423;-80
2022/02/26 10:09:48;;;;;;;10.50;3.97;;;;;;;8.28;43.27;101408.44;1445027;89;22277;-80
2022/02/26 10:12:22;;;;;;;8.00;2.87;;;;;;;8.40;43.16;101409.42;1464856;88;21362;-80
2022/02/26 10:14:51;;;;;;;6.47;2.87;;;;;;;8.47;41.31;101411.97;1451657;89;21318;-80
2022/02/26 10:17:29;;;;;;;7.13;2.87;;;;;;;8.63;41.02;101409.08;1449035;89;21382;-80
2022/02/26 10:20:07;;;;;;;7.80;3.73;;;;;;;8.36;41.54;101411.86;1449918;89;21370;-80
2022/02/26 10:22:38;;;;;;;6.30;2.80;;;;;;;8.11;41.48;101408.78;1475351;89;21502;-79
2022/02/26 10:25:12;;;;;;;6.97;2.92;;;;;;;7.67;41.37;101412.71;1463302;89;21325;-79
2022/02/26 10:27:45;;;;;;;13.73;4.13;;;;;;;7.72;41.94;101415.05;1449276;89;21496;-80
2022/02/26 10:30:17;;;;;;;6.03;2.77;;;;;;;7.76;41.95;101410.76;1466333;89;21333;-80
2022/02/26 10:33:07;;;;;;;6.77;3.03;;;;;;;7.67;42.53;101412.71;1461677;89;23323;-80
2022/02/26 10:35:41;;;;;;;5.87;2.40;;;;;;;8.01;42.81;101412.55;1454429;89;22233;-80
2022/02/26 10:38:23;;;;;;;6.57;3.00;;;;;;;8.14;41.17;101417.34;1457544;88;21420;-80
2022/02/26 10:41:06;;;;;;;3.73;1.97;;;;;;;8.28;41.66;101410.23;1458754;88;21368;-79
2022/02/26 10:43:50;;;;;;;6.87;2.43;;;;;;;7.98;40.97;101416.72;1459860;88;22469;-80
2022/02/26 10:46:33;;;;;;;8.23;2.80;;;;;;;7.91;41.17;101422.03;1469527;88;21519;-81
2022/02/26 10:49:09;;;;;;;8.07;3.10;;;;;;;8.12;42.26;101413.96;1450017;88;21324;-80
2022/02/26 10:51:45;;;;;;;7.80;2.60;;;;;;;7.90;41.61;101415.92;1470404;87;21793;-80
2022/02/26 10:54:24;;;;;;;7.20;3.07;;;;;;;7.71;40.33;101414.66;1513867;88;21185;-80
2022/02/26 10:56:54;;;;;;;8.07;2.80;;;;;;;7.93;42.40;101412.23;1471167;87;21251;-80
2022/02/26 10:59:38;;;;;;;6.53;2.75;;;;;;;8.25;42.30;101419.69;1475400;88;21399;-80
2022/02/26 11:02:11;;;;;;;7.07;2.97;;;;;;;8.52;40.40;101419.08;1454124;88;21502;-80
2022/02/26 11:04:39;;;;;;;8.30;2.77;;;;;;;8.89;41.92;101416.87;1469379;88;21598;-81
2022/02/26 11:07:07;;;;;;;7.97;2.33;;;;;;;9.23;40.23;101416.54;1474237;88;21476;-81
2022/02/26 11:09:38;;;;;;;5.57;2.50;;;;;;;9.54;40.12;101415.08;1378045;89;21222;-81
2022/02/26 11:12:06;;;;;;;8.13;2.22;;;;;;;9.83;40.23;101412.83;1513764;88;21258;-81
2022/02/26 11:14:36;;;;;;;6.43;2.30;;;;;;;9.91;37.73;101418.86;1396118;88;21192;-81
2022/02/26 11:17:05;;;;;;;6.57;2.70;;;;;;;9.94;38.61;101416.81;1462227;88;22381;-83
2022/02/26 11:19:34;;;;;;;7.07;2.83;;;;;;;10.22;39.51;101418.62;1449291;89;21383;-81
2022/02/26 11:22:01;;;;;;;4.57;2.10;;;;;;;10.58;39.29;101416.68;1452014;89;21941;-81
2022/02/26 11:24:31;;;;;;;5.37;2.30;;;;;;;10.44;35.79;101416.45;1532945;89;21473;-81
2022/02/26 11:26:58;;;;;;;10.40;4.33;;;;;;;10.15;36.60;101412.13;1378886;88;22265;-81
2022/02/26 11:29:26;;;;;;;11.87;4.23;;;;;;;10.43;37.28;101411.30;1397373;88;21517;-81
2022/02/26 11:32:07;;;;;;;15.50;2.83;;;;;;;10.26;37.48;101413.93;1557625;87;21287;-81